METAR Data

Data at: 0915 UTC 17 Nov 2018

METAR for:KLAX (Los Angeles Intl, CA, US)
Text:KLAX 170853Z VRB03KT 2 1/2SM BR VV003 16/14 A3001 RMK AO2 SLP158 VIS NW 1 3/4 T01560144 53004
Temperature: 15.6°C ( 60°F)
Dewpoint: 14.4°C ( 58°F) [RH = 93%]
Pressure (altimeter):30.01 inches Hg (1016.3 mb) [Sea level pressure: 1015.8 mb]
Winds:variable direction winds at 3 MPH (3 knots; 1.5 m/s)
Visibility: 2.50 sm ( 4.02 km)
Ceiling:indefinite ceiling with vertical visibility of 300 feet AGL
Clouds:obscured sky
Weather:BR (mist)